Tokyo, Japan

2:17 AM JST on February 09, 2016 (GMT +0900)
Tokyo (Haneda) International | | Change Station
CLOSE
Current Station
Airport
Location: Tokyo,
Elevation: 26 ft
Nearby Weather Stations

Elev 26 ft 35.55 °N, 139.78 °E | Updated 17 minutes ago

Partly Cloudy
Partly Cloudy
37 °F
Feels Like 34 °F
N
5
Wind Variable Wind from WSW

Today
High -- | Low -- °F
--% Chance of Precip.
Yesterday
High -- | Low -- °F
Precip. -- in
Pressure 29.92 in
Visibility 6.2 miles
Clouds Few 1000 ft
Windchill 34 °F
Dew Point 30 °F
Humidity 75%
Rainfall 0.00 in
Snow Depth Not available.
6:34 AM 5:15 PM
New Moon, 0% visible
METAR RJTT 081700Z 25004KT 9999 FEW010 03/M01 Q1013 NOSIG RMK 1CU010 A2992
Pressure 29.92 in
Visibility 6.2 miles
Clouds Few 1000 ft
Windchill 34 °F
Dew Point 30 °F
Humidity 75%
Rainfall 0.00 in
Snow Depth Not available.
6:34 AM 5:15 PM
New Moon, 0% visible
METAR RJTT 081700Z 25004KT 9999 FEW010 03/M01 Q1013 NOSIG RMK 1CU010 A2992

10-Day Weather Forecast

No radar image for this location.
×

Almanac

Astronomy

Feb. 09, 2016 Rise Set
Actual Time
Civil Twilight
Nautical Twilight
Astronomical Twilight
Moon
Length of Visible Light
Length of Day
Tomorrow will be .
, % of the Moon is Illuminated

Today's Extremes

Country Highs Country Lows

Community

WunderPhotos

Upload Photos

1,891,471 photos uploaded!

WunderBlog® & News

Nearby

Air Quality

  Air Quality AQ Index Pollutant
Not available.

Snow Depth

Station Depth Elevation

Earthquake Activity

City Distance Mag. Time & Date
Minimum magnitude displayed is 2.5.

Coastal Water Temperatures

Place Temperature

Stations

Nearby Weather Stations

Station Location Temp. Windchill Dew Point Humidity Wind Precip. Elev Updated Type